createdAt,value
2019-04-25T00:01:32.778Z,1.67
2019-04-25T00:04:01.891Z,1.50
2019-04-25T00:06:29.150Z,1.80
2019-04-25T00:08:56.394Z,1.73
2019-04-25T00:11:23.729Z,1.63
2019-04-25T00:13:51.611Z,1.70
2019-04-25T00:16:21.576Z,1.90
2019-04-25T00:18:48.885Z,1.30
2019-04-25T00:21:21.943Z,1.40
2019-04-25T00:23:56.741Z,1.50
2019-04-25T00:26:28.607Z,2.00
2019-04-25T00:28:55.849Z,1.50
2019-04-25T00:31:25.928Z,1.90
2019-04-25T00:33:53.283Z,2.10
2019-04-25T00:36:21.832Z,1.77
2019-04-25T00:38:50.159Z,1.90
2019-04-25T00:41:17.882Z,1.50
2019-04-25T00:43:45.363Z,2.30
2019-04-25T00:46:12.694Z,1.80
2019-04-25T00:48:41.504Z,1.70
2019-04-25T00:51:08.934Z,1.33
2019-04-25T00:53:36.174Z,1.90
2019-04-25T00:56:03.759Z,1.50
2019-04-25T00:58:32.662Z,1.57
2019-04-25T01:01:02.084Z,1.57
2019-04-25T01:03:31.712Z,1.40
2019-04-25T01:05:59.253Z,1.50
2019-04-25T01:08:26.526Z,1.20
2019-04-25T01:10:54.264Z,1.40
2019-04-25T01:13:22.338Z,1.10
2019-04-25T01:15:50.594Z,1.10
2019-04-25T01:18:18.638Z,0.90
2019-04-25T01:20:45.883Z,1.27
2019-04-25T01:23:13.785Z,1.20
2019-04-25T01:25:43.101Z,1.30
2019-04-25T01:28:10.119Z,1.20
2019-04-25T01:30:37.377Z,1.30
2019-04-25T01:33:04.650Z,1.13
2019-04-25T01:35:39.511Z,1.20
2019-04-25T01:38:20.601Z,1.33
2019-04-25T01:40:53.421Z,1.30
2019-04-25T01:43:39.558Z,1.60
2019-04-25T01:46:07.439Z,1.33
2019-04-25T01:48:34.705Z,2.53
2019-04-25T01:51:01.969Z,1.47
2019-04-25T01:53:29.211Z,1.57
2019-04-25T01:56:02.905Z,1.30
2019-04-25T01:58:25.510Z,1.37
2019-04-25T02:00:54.734Z,1.30
2019-04-25T02:03:24.995Z,1.00
2019-04-25T02:05:51.431Z,1.40
2019-04-25T02:08:18.702Z,1.10
2019-04-25T02:10:47.857Z,1.10
2019-04-25T02:13:19.494Z,0.97
2019-04-25T02:15:46.828Z,1.00
2019-04-25T02:18:14.069Z,1.00
2019-04-25T02:20:41.405Z,1.13
2019-04-25T02:23:08.650Z,0.80
2019-04-25T02:25:35.981Z,0.90
2019-04-25T02:28:05.613Z,0.90
2019-04-25T02:30:32.290Z,1.00
2019-04-25T02:33:02.695Z,0.90
2019-04-25T02:35:28.768Z,1.20
2019-04-25T02:37:59.295Z,1.10
2019-04-25T02:40:25.272Z,1.10
2019-04-25T02:42:55.822Z,1.30
2019-04-25T02:45:26.165Z,1.33
2019-04-25T02:48:05.673Z,2.07
2019-04-25T02:50:44.118Z,1.90
2019-04-25T02:53:16.490Z,1.50
2019-04-25T02:55:44.627Z,1.70
2019-04-25T02:58:13.952Z,1.87
2019-04-25T03:00:55.065Z,1.83
2019-04-25T03:03:09.990Z,1.97
2019-04-25T03:05:37.300Z,2.37
2019-04-25T03:08:08.319Z,2.20
2019-04-25T03:10:34.881Z,2.10
2019-04-25T03:13:06.964Z,1.87
2019-04-25T03:15:31.247Z,2.30
2019-04-25T03:17:58.706Z,2.03
2019-04-25T03:20:27.966Z,2.50
2019-04-25T03:22:55.211Z,1.80
2019-04-25T03:25:24.588Z,2.60
2019-04-25T03:27:51.514Z,2.10
2019-04-25T03:30:19.554Z,2.17
2019-04-25T03:32:46.800Z,2.40
2019-04-25T03:35:14.566Z,3.03
2019-04-25T03:37:43.601Z,2.30
2019-04-25T03:40:11.721Z,2.17
2019-04-25T03:42:39.819Z,2.40
2019-04-25T03:45:07.179Z,2.60
2019-04-25T03:47:34.466Z,2.53
2019-04-25T03:50:03.111Z,3.00
2019-04-25T03:52:30.699Z,2.93
2019-04-25T03:54:58.186Z,2.27
2019-04-25T03:57:25.452Z,2.40
2019-04-25T03:59:53.652Z,2.67
2019-04-25T04:02:21.035Z,2.20
2019-04-25T04:04:48.278Z,2.00
2019-04-25T04:07:15.957Z,2.00
2019-04-25T04:09:43.590Z,2.00
2019-04-25T04:12:10.919Z,1.93
2019-04-25T04:14:38.170Z,2.30
2019-04-25T04:17:10.714Z,1.70
2019-04-25T04:19:43.569Z,2.50
2019-04-25T04:22:15.104Z,2.00
2019-04-25T04:24:44.095Z,2.37
2019-04-25T04:27:14.114Z,2.00
2019-04-25T04:29:43.185Z,1.80
2019-04-25T04:32:10.663Z,1.40
2019-04-25T04:34:37.937Z,1.80
2019-04-25T04:37:05.462Z,1.50
2019-04-25T04:39:33.823Z,1.37
2019-04-25T04:42:01.249Z,1.30
2019-04-25T04:44:28.489Z,1.73
2019-04-25T04:46:55.834Z,1.27
2019-04-25T04:49:23.832Z,1.30
2019-04-25T04:51:51.116Z,1.10
2019-04-25T04:54:19.249Z,1.40
2019-04-25T04:56:46.562Z,1.20
2019-04-25T04:59:14.629Z,1.30
2019-04-25T05:02:03.323Z,1.23
2019-04-25T05:04:33.431Z,1.27
2019-04-25T05:07:08.419Z,1.20
2019-04-25T05:09:36.022Z,1.30
2019-04-25T05:12:04.105Z,1.30
2019-04-25T05:14:31.641Z,1.00
2019-04-25T05:16:58.882Z,1.13
2019-04-25T05:19:26.396Z,2.00
2019-04-25T05:21:53.768Z,1.77
2019-04-25T05:24:21.106Z,1.00
2019-04-25T05:26:48.345Z,1.37
2019-04-25T05:29:20.055Z,1.40
2019-04-25T05:31:46.295Z,1.17
2019-04-25T05:34:15.425Z,1.13
2019-04-25T05:36:43.854Z,1.00
2019-04-25T05:39:11.297Z,1.57
2019-04-25T05:41:44.242Z,1.20
2019-04-25T05:44:11.675Z,0.97
2019-04-25T05:46:39.182Z,1.10
2019-04-25T05:49:06.525Z,1.20
2019-04-25T05:51:33.910Z,0.83
2019-04-25T05:54:01.208Z,1.03
2019-04-25T05:56:28.460Z,0.83
2019-04-25T05:58:55.970Z,0.70
2019-04-25T06:01:24.634Z,1.33
2019-04-25T06:03:53.597Z,1.10
2019-04-25T06:06:21.102Z,1.07
2019-04-25T06:08:50.023Z,0.90
2019-04-25T06:11:21.613Z,0.90
2019-04-25T06:13:50.550Z,0.90
2019-04-25T06:16:20.191Z,1.17
2019-04-25T06:19:13.578Z,0.83
2019-04-25T06:21:34.785Z,0.97
2019-04-25T06:24:15.432Z,1.00
2019-04-25T06:26:44.507Z,1.10
2019-04-25T06:29:13.313Z,1.00
2019-04-25T06:31:40.733Z,0.70
2019-04-25T06:34:07.987Z,0.80
2019-04-25T06:36:35.393Z,1.13
2019-04-25T06:39:04.095Z,0.80
2019-04-25T06:41:32.182Z,0.83
2019-04-25T06:44:01.098Z,1.00
2019-04-25T06:46:46.064Z,0.90
2019-04-25T06:49:14.969Z,0.90
2019-04-25T06:51:48.541Z,1.00
2019-04-25T06:54:15.795Z,0.80
2019-04-25T06:56:43.491Z,0.90
2019-04-25T06:59:10.775Z,0.80
2019-04-25T07:01:38.037Z,0.87
2019-04-25T07:04:05.277Z,0.80
2019-04-25T07:06:33.833Z,0.90
2019-04-25T07:09:03.070Z,1.17
2019-04-25T07:11:30.524Z,0.87
2019-04-25T07:13:57.862Z,1.30
2019-04-25T07:16:25.991Z,1.00
2019-04-25T07:18:53.471Z,1.23
2019-04-25T07:21:20.814Z,1.00
2019-04-25T07:23:48.078Z,1.27
2019-04-25T07:26:17.426Z,1.03
2019-04-25T07:28:55.430Z,1.10
2019-04-25T07:31:25.037Z,1.07
2019-04-25T07:33:54.265Z,1.00
2019-04-25T07:36:23.262Z,0.97
2019-04-25T07:38:58.125Z,0.97
2019-04-25T07:41:19.670Z,1.20
2019-04-25T07:43:46.945Z,1.20
2019-04-25T07:46:14.190Z,1.13
2019-04-25T07:48:41.458Z,1.07
2019-04-25T07:51:08.711Z,1.30
2019-04-25T07:53:36.164Z,1.10
2019-04-25T07:56:04.264Z,1.00
2019-04-25T07:58:43.451Z,1.50
2019-04-25T08:01:03.748Z,1.40
2019-04-25T08:03:31.150Z,1.50
2019-04-25T08:06:00.059Z,1.40
2019-04-25T08:08:28.111Z,1.40
2019-04-25T08:10:56.967Z,1.63
2019-04-25T08:13:26.006Z,1.60
2019-04-25T08:15:54.887Z,1.30
2019-04-25T08:18:24.961Z,1.33
2019-04-25T08:20:51.427Z,1.40
2019-04-25T08:23:20.418Z,1.43
2019-04-25T08:25:47.661Z,1.37
2019-04-25T08:28:15.010Z,1.00
2019-04-25T08:30:43.651Z,1.40
2019-04-25T08:33:10.996Z,1.40
2019-04-25T08:35:38.315Z,1.10
2019-04-25T08:38:06.001Z,1.87
2019-04-25T08:40:35.721Z,1.60
2019-04-25T08:43:03.538Z,1.60
2019-04-25T08:45:31.516Z,1.60
2019-04-25T08:47:58.903Z,0.90
2019-04-25T08:50:33.215Z,1.03
2019-04-25T08:52:59.716Z,1.30
2019-04-25T08:55:45.720Z,1.40
2019-04-25T08:58:31.277Z,1.10
2019-04-25T09:01:18.878Z,1.10
2019-04-25T09:03:50.686Z,1.23
2019-04-25T09:06:18.008Z,1.17
2019-04-25T09:08:46.523Z,1.03
2019-04-25T09:11:14.233Z,1.10
2019-04-25T09:13:41.506Z,1.03
2019-04-25T09:16:08.750Z,0.97
2019-04-25T09:18:36.950Z,0.93
2019-04-25T09:21:04.326Z,1.10
2019-04-25T09:23:31.625Z,1.00
2019-04-25T09:25:58.874Z,1.10
2019-04-25T09:28:26.139Z,0.97
2019-04-25T09:30:54.002Z,1.20
2019-04-25T09:33:23.175Z,0.93
2019-04-25T09:35:50.560Z,0.90
2019-04-25T09:38:17.820Z,1.17
2019-04-25T09:40:45.663Z,1.03
2019-04-25T09:43:13.911Z,0.80
2019-04-25T09:45:48.474Z,1.57
2019-04-25T09:48:17.390Z,2.40
2019-04-25T09:50:46.418Z,1.00
2019-04-25T09:53:21.818Z,1.00
2019-04-25T09:55:57.514Z,1.40
2019-04-25T09:58:36.421Z,1.17
2019-04-25T10:01:08.702Z,1.00
2019-04-25T10:03:36.692Z,1.30
2019-04-25T10:06:04.308Z,1.27
2019-04-25T10:08:31.560Z,1.00
2019-04-25T10:10:58.894Z,1.47
2019-04-25T10:13:26.147Z,1.30
2019-04-25T10:16:06.088Z,1.53
2019-04-25T10:18:33.907Z,1.80
2019-04-25T10:21:01.603Z,1.90
2019-04-25T10:23:28.870Z,1.57
2019-04-25T10:25:56.267Z,1.90
2019-04-25T10:28:23.584Z,1.30
2019-04-25T10:30:50.857Z,1.73
2019-04-25T10:33:19.467Z,1.30
2019-04-25T10:35:53.094Z,1.23
2019-04-25T10:38:15.787Z,1.70
2019-04-25T10:40:45.135Z,1.30
2019-04-25T10:43:14.291Z,1.20
2019-04-25T10:45:42.381Z,1.63
2019-04-25T10:48:09.754Z,1.40
2019-04-25T10:50:37.013Z,1.40
2019-04-25T10:53:04.267Z,1.60
2019-04-25T10:55:31.533Z,1.30
2019-04-25T10:57:58.799Z,1.30
2019-04-25T11:00:28.052Z,1.57
2019-04-25T11:02:57.125Z,1.37
2019-04-25T11:05:24.459Z,1.43
2019-04-25T11:07:54.324Z,1.37
2019-04-25T11:10:23.585Z,1.00
2019-04-25T11:12:51.065Z,0.90
2019-04-25T11:15:18.447Z,1.17
2019-04-25T11:17:46.684Z,1.30
2019-04-25T11:20:22.939Z,1.50
2019-04-25T11:22:50.544Z,1.20
2019-04-25T11:25:17.782Z,1.30
2019-04-25T11:27:47.365Z,1.70
2019-04-25T11:30:14.575Z,1.30
2019-04-25T11:32:42.194Z,1.47
2019-04-25T11:35:10.417Z,1.47
2019-04-25T11:37:37.739Z,1.23
2019-04-25T11:40:14.414Z,1.30
2019-04-25T11:42:43.216Z,1.13
2019-04-25T11:45:11.434Z,1.33
2019-04-25T11:47:38.676Z,1.20
2019-04-25T11:50:07.190Z,1.37
2019-04-25T11:52:34.453Z,1.30
2019-04-25T11:55:01.693Z,1.23
2019-04-25T11:57:28.958Z,1.33
2019-04-25T11:59:56.210Z,1.20
2019-04-25T12:02:23.969Z,1.10
2019-04-25T12:04:51.570Z,1.10
2019-04-25T12:07:18.838Z,1.20
2019-04-25T12:09:46.873Z,1.60
2019-04-25T12:12:15.174Z,1.87
2019-04-25T12:14:44.180Z,1.27
2019-04-25T12:17:11.438Z,1.07
2019-04-25T12:19:38.691Z,1.10
2019-04-25T12:22:05.957Z,1.43
2019-04-25T12:24:33.650Z,1.30
2019-04-25T12:27:00.898Z,0.93
2019-04-25T12:29:28.151Z,1.07
2019-04-25T12:31:56.296Z,1.20
2019-04-25T12:34:24.317Z,0.97
2019-04-25T12:36:52.809Z,1.10
2019-04-25T12:39:20.799Z,1.27
2019-04-25T12:41:49.063Z,1.67
2019-04-25T12:44:24.459Z,1.20
2019-04-25T12:46:54.571Z,1.07
2019-04-25T12:49:24.144Z,1.70
2019-04-25T12:51:51.473Z,1.30
2019-04-25T12:54:18.974Z,1.10
2019-04-25T12:56:47.391Z,1.13
2019-04-25T12:59:14.845Z,1.20
2019-04-25T13:01:43.443Z,1.27
2019-04-25T13:04:10.990Z,1.00
2019-04-25T13:06:38.231Z,1.97
2019-04-25T13:09:07.018Z,1.07
2019-04-25T13:11:34.812Z,1.37
2019-04-25T13:14:02.456Z,1.20
2019-04-25T13:16:29.717Z,0.90
2019-04-25T13:19:09.182Z,1.10
2019-04-25T13:21:25.956Z,1.00
2019-04-25T13:23:53.193Z,1.17
2019-04-25T13:26:24.693Z,0.97
2019-04-25T13:28:56.252Z,1.10
2019-04-25T13:31:31.034Z,0.90
2019-04-25T13:33:59.919Z,1.40
2019-04-25T13:36:27.266Z,1.80
2019-04-25T13:38:54.594Z,1.40
2019-04-25T13:41:21.923Z,1.07
2019-04-25T13:43:49.166Z,1.30
2019-04-25T13:46:19.973Z,1.10
2019-04-25T13:48:45.670Z,1.40
2019-04-25T13:51:14.176Z,0.97
2019-04-25T13:53:43.370Z,1.00
2019-04-25T13:56:11.286Z,1.03
2019-04-25T13:58:38.643Z,1.20
2019-04-25T14:01:13.265Z,1.20
2019-04-25T14:03:36.110Z,1.03
2019-04-25T14:06:03.750Z,0.90
2019-04-25T14:08:31.543Z,0.80
2019-04-25T14:10:59.233Z,0.90
2019-04-25T14:13:26.568Z,0.70
2019-04-25T14:15:55.466Z,0.93
2019-04-25T14:18:40.522Z,1.13
2019-04-25T14:21:15.126Z,1.20
2019-04-25T14:23:44.152Z,0.80
2019-04-25T14:26:11.742Z,1.10
2019-04-25T14:28:39.018Z,0.93
2019-04-25T14:31:06.730Z,0.70
2019-04-25T14:33:35.375Z,1.33
2019-04-25T14:36:03.217Z,1.00
2019-04-25T14:38:30.566Z,0.97
2019-04-25T14:40:58.088Z,1.00
2019-04-25T14:43:26.184Z,1.00
2019-04-25T14:45:56.046Z,0.90
2019-04-25T14:48:22.565Z,0.93
2019-04-25T14:50:50.841Z,1.20
2019-04-25T14:53:18.953Z,1.00
2019-04-25T14:55:50.871Z,0.93
2019-04-25T14:58:18.879Z,0.93
2019-04-25T15:00:47.518Z,0.90
2019-04-25T15:03:14.763Z,0.80
2019-04-25T15:05:43.486Z,0.80
2019-04-25T15:08:11.032Z,1.20
2019-04-25T15:10:38.298Z,0.80
2019-04-25T15:13:07.030Z,1.20
2019-04-25T15:15:34.298Z,0.80
2019-04-25T15:18:01.556Z,1.00
2019-04-25T15:20:28.823Z,0.70
2019-04-25T15:22:56.339Z,0.90
2019-04-25T15:25:23.603Z,1.10
2019-04-25T15:27:50.845Z,1.07
2019-04-25T15:30:19.809Z,1.23
2019-04-25T15:32:47.054Z,1.10
2019-04-25T15:35:16.210Z,0.90
2019-04-25T15:37:48.010Z,0.83
2019-04-25T15:40:16.913Z,0.83
2019-04-25T15:42:51.574Z,1.00
2019-04-25T15:45:23.181Z,0.90
2019-04-25T15:47:50.691Z,0.97
2019-04-25T15:50:17.949Z,0.87
2019-04-25T15:52:45.195Z,0.93
2019-04-25T15:55:12.453Z,1.10
2019-04-25T15:57:39.697Z,1.00
2019-04-25T16:00:08.687Z,1.10
2019-04-25T16:02:36.184Z,0.87
2019-04-25T16:05:05.495Z,0.80
2019-04-25T16:07:33.807Z,0.80
2019-04-25T16:10:01.219Z,1.10
2019-04-25T16:12:28.735Z,0.70
2019-04-25T16:14:56.074Z,0.60
2019-04-25T16:17:23.575Z,1.07
2019-04-25T16:19:50.834Z,1.03
2019-04-25T16:22:18.082Z,0.70
2019-04-25T16:24:45.430Z,0.70
2019-04-25T16:27:13.142Z,0.80
2019-04-25T16:29:40.663Z,0.90
2019-04-25T16:32:20.012Z,0.80
2019-04-25T16:34:38.535Z,0.60
2019-04-25T16:37:05.865Z,0.70
2019-04-25T16:39:35.172Z,0.70
2019-04-25T16:42:02.549Z,0.80
2019-04-25T16:44:29.941Z,0.70
2019-04-25T16:46:57.234Z,0.60
2019-04-25T16:49:24.564Z,0.70
2019-04-25T16:51:51.822Z,0.70
2019-04-25T16:54:19.134Z,0.90
2019-04-25T16:56:46.399Z,1.03
2019-04-25T16:59:13.651Z,0.70
2019-04-25T17:01:40.915Z,1.10
2019-04-25T17:04:08.162Z,0.90
2019-04-25T17:06:35.957Z,1.17
2019-04-25T17:09:04.447Z,1.13
2019-04-25T17:11:31.994Z,1.00
2019-04-25T17:14:03.621Z,1.10
2019-04-25T17:16:50.350Z,1.30
2019-04-25T17:19:24.742Z,1.10
2019-04-25T17:21:52.095Z,1.20
2019-04-25T17:24:19.342Z,1.13
2019-04-25T17:26:46.855Z,1.30
2019-04-25T17:29:15.738Z,1.20
2019-04-25T17:31:53.157Z,1.63
2019-04-25T17:34:30.780Z,1.30
2019-04-25T17:37:03.590Z,1.20
2019-04-25T17:39:35.457Z,1.60
2019-04-25T17:42:02.771Z,1.20
2019-04-25T17:44:30.017Z,1.33
2019-04-25T17:47:06.166Z,1.50
2019-04-25T17:49:26.243Z,1.50
2019-04-25T17:51:53.514Z,1.00
2019-04-25T17:54:30.666Z,1.00
2019-04-25T17:56:56.292Z,1.10
2019-04-25T17:59:23.530Z,1.50
2019-04-25T18:01:52.296Z,1.17
2019-04-25T18:04:19.613Z,1.40
2019-04-25T18:06:46.874Z,1.00
2019-04-25T18:09:14.143Z,1.10
2019-04-25T18:11:42.239Z,1.10
2019-04-25T18:14:09.599Z,0.90
2019-04-25T18:16:38.645Z,0.80
2019-04-25T18:19:15.973Z,0.93
2019-04-25T18:21:43.218Z,1.00
2019-04-25T18:24:14.842Z,1.00
2019-04-25T18:27:00.050Z,0.97
2019-04-25T18:29:27.386Z,0.77
2019-04-25T18:31:54.722Z,1.00
2019-04-25T18:34:35.976Z,0.80
2019-04-25T18:37:11.126Z,0.80
2019-04-25T18:39:42.743Z,0.90
2019-04-25T18:42:11.903Z,0.80
2019-04-25T18:44:39.993Z,0.80
2019-04-25T18:47:07.283Z,1.00
2019-04-25T18:49:34.533Z,0.77
2019-04-25T18:52:05.941Z,0.80
2019-04-25T18:54:47.333Z,0.73
2019-04-25T18:57:19.061Z,0.60
2019-04-25T18:59:48.309Z,0.90
2019-04-25T19:02:23.426Z,0.80
2019-04-25T19:05:10.458Z,0.70
2019-04-25T19:07:38.470Z,0.90
2019-04-25T19:10:07.902Z,0.83
2019-04-25T19:12:35.147Z,0.60
2019-04-25T19:15:02.421Z,0.50
2019-04-25T19:17:29.670Z,0.80
2019-04-25T19:19:56.940Z,0.60
2019-04-25T19:22:24.174Z,0.80
2019-04-25T19:24:52.198Z,0.90
2019-04-25T19:27:23.907Z,0.80
2019-04-25T19:29:49.124Z,0.70
2019-04-25T19:32:16.470Z,0.80
2019-04-25T19:34:44.608Z,0.87
2019-04-25T19:37:12.185Z,0.60
2019-04-25T19:39:41.635Z,0.70
2019-04-25T19:42:13.691Z,0.50
2019-04-25T19:44:41.029Z,0.80
2019-04-25T19:47:08.378Z,0.60
2019-04-25T19:49:35.895Z,0.50
2019-04-25T19:52:03.137Z,0.87
2019-04-25T19:54:30.397Z,0.63
2019-04-25T19:56:57.662Z,0.50
2019-04-25T19:59:25.159Z,0.60
2019-04-25T20:01:54.062Z,0.60
2019-04-25T20:04:28.772Z,0.77
2019-04-25T20:07:12.726Z,0.97
2019-04-25T20:09:53.990Z,0.80
2019-04-25T20:12:22.897Z,0.70
2019-04-25T20:14:51.294Z,0.70
2019-04-25T20:17:18.638Z,0.70
2019-04-25T20:19:45.978Z,0.90
2019-04-25T20:22:13.230Z,0.70
2019-04-25T20:24:40.490Z,0.83
2019-04-25T20:27:07.734Z,0.70
2019-04-25T20:29:35.260Z,0.70
2019-04-25T20:32:02.502Z,0.70
2019-04-25T20:34:29.770Z,0.60
2019-04-25T20:36:57.022Z,0.60
2019-04-25T20:39:27.755Z,0.67
2019-04-25T20:41:54.681Z,0.80
2019-04-25T20:44:21.935Z,0.70
2019-04-25T20:46:49.254Z,0.57
2019-04-25T20:49:16.538Z,0.60
2019-04-25T20:51:44.103Z,0.50
2019-04-25T20:54:11.366Z,0.80
2019-04-25T20:56:38.684Z,0.63
2019-04-25T20:59:05.946Z,0.60
2019-04-25T21:01:33.190Z,0.90
2019-04-25T21:04:12.521Z,0.60
2019-04-25T21:06:33.872Z,0.63
2019-04-25T21:09:02.186Z,0.60
2019-04-25T21:11:29.569Z,0.80
2019-04-25T21:14:01.452Z,0.70
2019-04-25T21:16:30.734Z,0.70
2019-04-25T21:18:59.894Z,0.50
2019-04-25T21:21:27.159Z,0.90
2019-04-25T21:23:54.897Z,0.90
2019-04-25T21:26:22.154Z,0.63
2019-04-25T21:28:50.188Z,0.63
2019-04-25T21:31:18.209Z,0.77
2019-04-25T21:33:45.527Z,0.70
2019-04-25T21:36:12.967Z,0.80
2019-04-25T21:38:40.746Z,0.90
2019-04-25T21:41:09.713Z,0.80
2019-04-25T21:43:38.771Z,0.80
2019-04-25T21:46:06.393Z,0.60
2019-04-25T21:48:33.810Z,0.80
2019-04-25T21:51:03.765Z,0.70
2019-04-25T21:53:31.007Z,0.70
2019-04-25T21:55:58.441Z,0.80
2019-04-25T21:58:26.166Z,1.30
2019-04-25T22:00:56.434Z,0.90
2019-04-25T22:03:25.202Z,0.70
2019-04-25T22:05:52.707Z,0.73
2019-04-25T22:08:19.945Z,0.80
2019-04-25T22:10:47.215Z,0.67
2019-04-25T22:13:17.263Z,0.90
2019-04-25T22:15:43.442Z,1.00
2019-04-25T22:18:11.073Z,1.00
2019-04-25T22:20:38.578Z,1.03
2019-04-25T22:23:06.744Z,0.83
2019-04-25T22:25:34.338Z,0.90
2019-04-25T22:28:01.946Z,0.90
2019-04-25T22:30:30.558Z,0.90
2019-04-25T22:33:11.575Z,0.93
2019-04-25T22:35:43.158Z,0.90
2019-04-25T22:38:10.580Z,0.83
2019-04-25T22:40:38.103Z,0.80
2019-04-25T22:43:06.314Z,1.03
2019-04-25T22:45:33.839Z,0.90
2019-04-25T22:48:02.373Z,1.10
2019-04-25T22:50:29.907Z,1.07
2019-04-25T22:52:57.165Z,0.83
2019-04-25T22:55:24.409Z,1.20
2019-04-25T22:57:51.682Z,1.43
2019-04-25T23:00:23.607Z,0.90
2019-04-25T23:02:58.438Z,0.97
2019-04-25T23:05:30.036Z,1.20
2019-04-25T23:07:57.478Z,1.07
2019-04-25T23:10:25.243Z,1.40
2019-04-25T23:12:52.509Z,1.00
2019-04-25T23:15:19.747Z,1.10
2019-04-25T23:17:47.189Z,1.00
2019-04-25T23:20:14.606Z,1.10
2019-04-25T23:22:41.873Z,1.13
2019-04-25T23:25:10.642Z,1.07
2019-04-25T23:27:48.375Z,1.00
2019-04-25T23:30:17.514Z,1.00
2019-04-25T23:32:44.842Z,1.40
2019-04-25T23:35:25.262Z,1.20
2019-04-25T23:37:41.067Z,1.10
2019-04-25T23:40:09.564Z,1.10
2019-04-25T23:42:36.887Z,1.37
2019-04-25T23:45:06.656Z,1.37
2019-04-25T23:47:34.668Z,1.10
2019-04-25T23:50:02.186Z,1.00
2019-04-25T23:52:29.451Z,1.10
2019-04-25T23:54:56.950Z,1.20
2019-04-25T23:57:24.306Z,1.10
2019-04-25T23:59:51.552Z,1.00
